Terminal Aerodrome Forecast
Issued by NWS Topeka, KS

Home | Current Version | Previous Version | Graphics & Text | Print | Product List | Glossary On
Versions: 1 2 3 4 5 6 7 8 9 10 11 12 13 14 15 16 17 18 19 20 21
713
FTUS43 KTOP 151147
TAFTOP
TAF
KTOP 151147Z 1512/1612 07004KT 5SM BR OVC012
      TEMPO 1512/1516 2SM -FZRA BR OVC007
     FM151600 09005KT 3SM -FZRA BR OVC007
      TEMPO 1521/1601 RA OVC005
     FM160200 08005KT 3SM RA BR OVC004=

USA.gov is the U.S. government's official web portal to all federal, state and local government web resources and services.